sensor_id;sensor_type;location;lat;lon;timestamp;P1;durP1;ratioP1;P2;durP2;ratioP2
11791;SDS011;5953;52.372;9.918;2023-03-12T00:01:12;5.13;;;2.30;;
11791;SDS011;5953;52.372;9.918;2023-03-12T00:03:41;4.47;;;1.80;;
11791;SDS011;5953;52.372;9.918;2023-03-12T00:06:11;4.63;;;2.17;;
11791;SDS011;5953;52.372;9.918;2023-03-12T00:08:39;3.30;;;1.43;;
11791;SDS011;5953;52.372;9.918;2023-03-12T00:11:07;1.80;;;1.70;;
11791;SDS011;5953;52.372;9.918;2023-03-12T00:13:37;2.37;;;1.60;;
11791;SDS011;5953;52.372;9.918;2023-03-12T00:16:06;2.83;;;1.23;;
11791;SDS011;5953;52.372;9.918;2023-03-12T00:18:35;5.73;;;1.57;;
11791;SDS011;5953;52.372;9.918;2023-03-12T00:21:04;3.90;;;1.70;;
11791;SDS011;5953;52.372;9.918;2023-03-12T00:23:34;4.43;;;1.80;;
11791;SDS011;5953;52.372;9.918;2023-03-12T00:26:03;7.07;;;2.07;;
11791;SDS011;5953;52.372;9.918;2023-03-12T00:28:33;4.67;;;1.83;;
11791;SDS011;5953;52.372;9.918;2023-03-12T00:31:02;4.63;;;1.57;;
11791;SDS011;5953;52.372;9.918;2023-03-12T00:33:39;4.17;;;1.70;;
11791;SDS011;5953;52.372;9.918;2023-03-12T00:36:07;3.40;;;1.53;;
11791;SDS011;5953;52.372;9.918;2023-03-12T00:38:37;2.93;;;1.67;;
11791;SDS011;5953;52.372;9.918;2023-03-12T00:41:05;2.57;;;1.40;;
11791;SDS011;5953;52.372;9.918;2023-03-12T00:43:33;5.10;;;1.97;;
11791;SDS011;5953;52.372;9.918;2023-03-12T00:46:01;5.23;;;2.20;;
11791;SDS011;5953;52.372;9.918;2023-03-12T00:48:29;2.00;;;1.60;;
11791;SDS011;5953;52.372;9.918;2023-03-12T00:50:56;3.67;;;1.90;;
11791;SDS011;5953;52.372;9.918;2023-03-12T00:53:24;5.90;;;2.10;;
11791;SDS011;5953;52.372;9.918;2023-03-12T00:55:54;4.43;;;1.53;;
11791;SDS011;5953;52.372;9.918;2023-03-12T00:58:22;3.20;;;1.17;;
11791;SDS011;5953;52.372;9.918;2023-03-12T01:00:50;3.30;;;1.80;;
11791;SDS011;5953;52.372;9.918;2023-03-12T01:03:18;2.10;;;1.60;;
11791;SDS011;5953;52.372;9.918;2023-03-12T01:05:46;1.90;;;1.70;;
11791;SDS011;5953;52.372;9.918;2023-03-12T01:08:19;4.13;;;1.80;;
11791;SDS011;5953;52.372;9.918;2023-03-12T01:10:48;2.90;;;1.47;;
11791;SDS011;5953;52.372;9.918;2023-03-12T01:13:18;2.03;;;1.50;;
11791;SDS011;5953;52.372;9.918;2023-03-12T01:15:46;2.90;;;1.70;;
11791;SDS011;5953;52.372;9.918;2023-03-12T01:18:13;2.93;;;1.80;;
11791;SDS011;5953;52.372;9.918;2023-03-12T01:20:41;2.07;;;1.60;;
11791;SDS011;5953;52.372;9.918;2023-03-12T01:23:09;1.90;;;1.53;;
11791;SDS011;5953;52.372;9.918;2023-03-12T01:25:37;4.57;;;1.73;;
11791;SDS011;5953;52.372;9.918;2023-03-12T01:28:06;2.00;;;1.33;;
11791;SDS011;5953;52.372;9.918;2023-03-12T01:30:36;2.43;;;1.70;;
11791;SDS011;5953;52.372;9.918;2023-03-12T01:33:04;4.40;;;2.00;;
11791;SDS011;5953;52.372;9.918;2023-03-12T01:35:34;4.13;;;2.20;;
11791;SDS011;5953;52.372;9.918;2023-03-12T01:38:03;3.37;;;2.07;;
11791;SDS011;5953;52.372;9.918;2023-03-12T01:40:31;5.97;;;1.77;;
11791;SDS011;5953;52.372;9.918;2023-03-12T01:43:13;3.83;;;2.50;;
11791;SDS011;5953;52.372;9.918;2023-03-12T01:46:06;2.57;;;1.60;;
11791;SDS011;5953;52.372;9.918;2023-03-12T01:48:47;4.60;;;1.83;;
11791;SDS011;5953;52.372;9.918;2023-03-12T01:51:19;5.27;;;2.33;;
11791;SDS011;5953;52.372;9.918;2023-03-12T01:53:49;6.57;;;2.40;;
11791;SDS011;5953;52.372;9.918;2023-03-12T01:56:19;3.87;;;2.37;;
11791;SDS011;5953;52.372;9.918;2023-03-12T01:58:48;4.50;;;2.00;;
11791;SDS011;5953;52.372;9.918;2023-03-12T02:01:22;5.67;;;2.30;;
11791;SDS011;5953;52.372;9.918;2023-03-12T02:03:51;2.57;;;1.93;;
11791;SDS011;5953;52.372;9.918;2023-03-12T02:06:45;5.63;;;2.80;;
11791;SDS011;5953;52.372;9.918;2023-03-12T02:09:18;4.73;;;2.83;;
11791;SDS011;5953;52.372;9.918;2023-03-12T02:11:48;3.80;;;2.20;;
11791;SDS011;5953;52.372;9.918;2023-03-12T02:14:16;8.00;;;2.90;;
11791;SDS011;5953;52.372;9.918;2023-03-12T02:16:46;4.13;;;2.07;;
11791;SDS011;5953;52.372;9.918;2023-03-12T02:19:16;3.83;;;2.30;;
11791;SDS011;5953;52.372;9.918;2023-03-12T02:21:50;3.80;;;1.90;;
11791;SDS011;5953;52.372;9.918;2023-03-12T02:24:21;3.20;;;2.20;;
11791;SDS011;5953;52.372;9.918;2023-03-12T02:26:56;4.37;;;2.53;;
11791;SDS011;5953;52.372;9.918;2023-03-12T02:29:25;3.83;;;2.50;;
11791;SDS011;5953;52.372;9.918;2023-03-12T02:31:56;4.20;;;1.93;;
11791;SDS011;5953;52.372;9.918;2023-03-12T02:34:27;4.90;;;2.27;;
11791;SDS011;5953;52.372;9.918;2023-03-12T02:36:56;4.73;;;2.47;;
11791;SDS011;5953;52.372;9.918;2023-03-12T02:39:24;4.50;;;2.23;;
11791;SDS011;5953;52.372;9.918;2023-03-12T02:41:54;7.60;;;2.57;;
11791;SDS011;5953;52.372;9.918;2023-03-12T02:44:25;5.70;;;2.00;;
11791;SDS011;5953;52.372;9.918;2023-03-12T02:46:57;2.93;;;2.07;;
11791;SDS011;5953;52.372;9.918;2023-03-12T02:49:28;1.97;;;1.50;;
11791;SDS011;5953;52.372;9.918;2023-03-12T02:51:57;2.90;;;1.90;;
11791;SDS011;5953;52.372;9.918;2023-03-12T02:54:25;3.23;;;1.83;;
11791;SDS011;5953;52.372;9.918;2023-03-12T02:56:53;4.60;;;2.17;;
11791;SDS011;5953;52.372;9.918;2023-03-12T02:59:24;2.20;;;1.70;;
11791;SDS011;5953;52.372;9.918;2023-03-12T03:01:53;3.97;;;1.87;;
11791;SDS011;5953;52.372;9.918;2023-03-12T03:04:22;3.17;;;1.93;;
11791;SDS011;5953;52.372;9.918;2023-03-12T03:06:51;4.60;;;2.00;;
11791;SDS011;5953;52.372;9.918;2023-03-12T03:09:20;3.70;;;2.17;;
11791;SDS011;5953;52.372;9.918;2023-03-12T03:11:48;4.83;;;1.80;;
11791;SDS011;5953;52.372;9.918;2023-03-12T03:14:19;3.07;;;2.20;;
11791;SDS011;5953;52.372;9.918;2023-03-12T03:16:50;4.00;;;1.93;;
11791;SDS011;5953;52.372;9.918;2023-03-12T03:19:21;4.50;;;2.33;;
11791;SDS011;5953;52.372;9.918;2023-03-12T03:21:49;4.03;;;2.10;;
11791;SDS011;5953;52.372;9.918;2023-03-12T03:24:18;4.67;;;1.80;;
11791;SDS011;5953;52.372;9.918;2023-03-12T03:26:46;4.33;;;2.00;;
11791;SDS011;5953;52.372;9.918;2023-03-12T03:29:14;3.10;;;1.93;;
11791;SDS011;5953;52.372;9.918;2023-03-12T03:31:43;3.80;;;2.13;;
11791;SDS011;5953;52.372;9.918;2023-03-12T03:34:12;4.40;;;1.90;;
11791;SDS011;5953;52.372;9.918;2023-03-12T03:36:40;4.47;;;2.23;;
11791;SDS011;5953;52.372;9.918;2023-03-12T03:39:08;3.70;;;2.07;;
11791;SDS011;5953;52.372;9.918;2023-03-12T03:41:36;4.90;;;1.97;;
11791;SDS011;5953;52.372;9.918;2023-03-12T03:44:05;7.57;;;1.90;;
11791;SDS011;5953;52.372;9.918;2023-03-12T03:46:33;2.90;;;1.80;;
11791;SDS011;5953;52.372;9.918;2023-03-12T03:49:02;3.43;;;1.87;;
11791;SDS011;5953;52.372;9.918;2023-03-12T03:51:31;3.03;;;1.60;;
11791;SDS011;5953;52.372;9.918;2023-03-12T03:53:59;3.90;;;2.00;;
11791;SDS011;5953;52.372;9.918;2023-03-12T03:56:29;4.50;;;2.13;;
11791;SDS011;5953;52.372;9.918;2023-03-12T03:58:57;3.47;;;1.77;;
11791;SDS011;5953;52.372;9.918;2023-03-12T04:01:27;5.80;;;2.30;;
11791;SDS011;5953;52.372;9.918;2023-03-12T04:03:56;2.80;;;1.67;;
11791;SDS011;5953;52.372;9.918;2023-03-12T04:06:25;3.97;;;1.60;;
11791;SDS011;5953;52.372;9.918;2023-03-12T04:08:56;2.87;;;1.90;;
11791;SDS011;5953;52.372;9.918;2023-03-12T04:11:25;4.57;;;1.60;;
11791;SDS011;5953;52.372;9.918;2023-03-12T04:13:54;4.80;;;2.27;;
11791;SDS011;5953;52.372;9.918;2023-03-12T04:16:22;4.80;;;1.93;;
11791;SDS011;5953;52.372;9.918;2023-03-12T04:18:53;2.43;;;1.73;;
11791;SDS011;5953;52.372;9.918;2023-03-12T04:21:21;2.83;;;1.83;;
11791;SDS011;5953;52.372;9.918;2023-03-12T04:23:50;3.57;;;1.57;;
11791;SDS011;5953;52.372;9.918;2023-03-12T04:26:21;5.03;;;1.90;;
11791;SDS011;5953;52.372;9.918;2023-03-12T04:28:50;5.47;;;2.00;;
11791;SDS011;5953;52.372;9.918;2023-03-12T04:31:18;4.67;;;1.73;;
11791;SDS011;5953;52.372;9.918;2023-03-12T04:33:58;3.30;;;1.63;;
11791;SDS011;5953;52.372;9.918;2023-03-12T04:36:27;3.07;;;2.00;;
11791;SDS011;5953;52.372;9.918;2023-03-12T04:38:55;3.40;;;1.90;;
11791;SDS011;5953;52.372;9.918;2023-03-12T04:41:26;3.77;;;2.00;;
11791;SDS011;5953;52.372;9.918;2023-03-12T04:43:55;3.83;;;2.00;;
11791;SDS011;5953;52.372;9.918;2023-03-12T04:47:08;3.60;;;1.80;;
11791;SDS011;5953;52.372;9.918;2023-03-12T04:50:23;4.00;;;2.33;;
11791;SDS011;5953;52.372;9.918;2023-03-12T04:52:56;2.60;;;1.87;;
11791;SDS011;5953;52.372;9.918;2023-03-12T04:55:26;2.70;;;1.80;;
11791;SDS011;5953;52.372;9.918;2023-03-12T04:57:58;4.17;;;1.80;;
11791;SDS011;5953;52.372;9.918;2023-03-12T05:00:40;2.87;;;1.70;;
11791;SDS011;5953;52.372;9.918;2023-03-12T05:03:10;7.00;;;2.13;;
11791;SDS011;5953;52.372;9.918;2023-03-12T05:05:57;2.63;;;1.90;;
11791;SDS011;5953;52.372;9.918;2023-03-12T05:08:38;7.07;;;2.23;;
11791;SDS011;5953;52.372;9.918;2023-03-12T05:11:19;4.53;;;2.17;;
11791;SDS011;5953;52.372;9.918;2023-03-12T05:14:11;5.17;;;2.10;;
11791;SDS011;5953;52.372;9.918;2023-03-12T05:16:48;5.23;;;1.87;;
11791;SDS011;5953;52.372;9.918;2023-03-12T05:19:28;4.10;;;2.07;;
11791;SDS011;5953;52.372;9.918;2023-03-12T05:22:09;5.17;;;2.20;;
11791;SDS011;5953;52.372;9.918;2023-03-12T05:24:43;4.50;;;2.10;;
11791;SDS011;5953;52.372;9.918;2023-03-12T05:27:23;1.73;;;1.60;;
11791;SDS011;5953;52.372;9.918;2023-03-12T05:30:00;2.80;;;2.33;;
11791;SDS011;5953;52.372;9.918;2023-03-12T05:32:43;2.60;;;2.00;;
11791;SDS011;5953;52.372;9.918;2023-03-12T05:35:26;8.93;;;2.47;;
11791;SDS011;5953;52.372;9.918;2023-03-12T05:37:59;7.23;;;2.17;;
11791;SDS011;5953;52.372;9.918;2023-03-12T05:40:31;2.53;;;2.00;;
11791;SDS011;5953;52.372;9.918;2023-03-12T05:43:04;4.20;;;1.83;;
11791;SDS011;5953;52.372;9.918;2023-03-12T05:45:38;3.20;;;1.80;;
11791;SDS011;5953;52.372;9.918;2023-03-12T05:48:33;4.07;;;2.10;;
11791;SDS011;5953;52.372;9.918;2023-03-12T05:51:10;6.07;;;3.87;;
11791;SDS011;5953;52.372;9.918;2023-03-12T05:53:58;7.40;;;4.90;;
11791;SDS011;5953;52.372;9.918;2023-03-12T05:56:32;6.17;;;4.10;;
11791;SDS011;5953;52.372;9.918;2023-03-12T05:59:25;3.83;;;2.80;;
11791;SDS011;5953;52.372;9.918;2023-03-12T06:02:05;7.37;;;3.00;;
11791;SDS011;5953;52.372;9.918;2023-03-12T06:04:35;4.20;;;2.30;;
11791;SDS011;5953;52.372;9.918;2023-03-12T06:07:05;4.40;;;1.97;;
11791;SDS011;5953;52.372;9.918;2023-03-12T06:09:38;3.37;;;2.30;;
11791;SDS011;5953;52.372;9.918;2023-03-12T06:12:09;4.50;;;2.33;;
11791;SDS011;5953;52.372;9.918;2023-03-12T06:14:37;5.17;;;2.50;;
11791;SDS011;5953;52.372;9.918;2023-03-12T06:17:11;3.73;;;2.33;;
11791;SDS011;5953;52.372;9.918;2023-03-12T06:19:40;6.13;;;2.17;;
11791;SDS011;5953;52.372;9.918;2023-03-12T06:22:22;4.87;;;2.20;;
11791;SDS011;5953;52.372;9.918;2023-03-12T06:24:59;4.07;;;2.27;;
11791;SDS011;5953;52.372;9.918;2023-03-12T06:27:51;2.77;;;2.00;;
11791;SDS011;5953;52.372;9.918;2023-03-12T06:30:20;6.10;;;2.50;;
11791;SDS011;5953;52.372;9.918;2023-03-12T06:32:51;3.23;;;1.87;;
11791;SDS011;5953;52.372;9.918;2023-03-12T06:35:24;7.17;;;2.90;;
11791;SDS011;5953;52.372;9.918;2023-03-12T06:37:53;6.87;;;2.40;;
11791;SDS011;5953;52.372;9.918;2023-03-12T06:40:21;4.43;;;2.50;;
11791;SDS011;5953;52.372;9.918;2023-03-12T06:42:53;4.60;;;2.50;;
11791;SDS011;5953;52.372;9.918;2023-03-12T06:45:22;6.27;;;3.37;;
11791;SDS011;5953;52.372;9.918;2023-03-12T06:47:55;3.37;;;2.50;;
11791;SDS011;5953;52.372;9.918;2023-03-12T06:50:23;6.13;;;2.63;;
11791;SDS011;5953;52.372;9.918;2023-03-12T06:52:51;4.40;;;2.80;;
11791;SDS011;5953;52.372;9.918;2023-03-12T06:55:19;6.07;;;2.57;;
11791;SDS011;5953;52.372;9.918;2023-03-12T06:57:47;5.27;;;2.87;;
11791;SDS011;5953;52.372;9.918;2023-03-12T07:00:17;4.13;;;2.73;;
11791;SDS011;5953;52.372;9.918;2023-03-12T07:02:45;6.93;;;3.90;;
11791;SDS011;5953;52.372;9.918;2023-03-12T07:05:16;5.77;;;3.97;;
11791;SDS011;5953;52.372;9.918;2023-03-12T07:07:44;4.83;;;3.00;;
11791;SDS011;5953;52.372;9.918;2023-03-12T07:14:00;3.60;;;2.90;;
11791;SDS011;5953;52.372;9.918;2023-03-12T07:16:28;6.83;;;2.97;;
11791;SDS011;5953;52.372;9.918;2023-03-12T07:18:57;3.83;;;2.77;;
11791;SDS011;5953;52.372;9.918;2023-03-12T07:21:26;4.53;;;2.13;;
11791;SDS011;5953;52.372;9.918;2023-03-12T07:23:55;4.73;;;2.37;;
11791;SDS011;5953;52.372;9.918;2023-03-12T07:26:24;5.47;;;2.67;;
11791;SDS011;5953;52.372;9.918;2023-03-12T07:28:52;3.20;;;2.60;;
11791;SDS011;5953;52.372;9.918;2023-03-12T07:32:28;5.33;;;2.93;;
11791;SDS011;5953;52.372;9.918;2023-03-12T07:35:13;5.33;;;3.07;;
11791;SDS011;5953;52.372;9.918;2023-03-12T07:37:53;4.67;;;2.50;;
11791;SDS011;5953;52.372;9.918;2023-03-12T07:40:24;6.27;;;2.80;;
11791;SDS011;5953;52.372;9.918;2023-03-12T07:42:52;4.50;;;2.30;;
11791;SDS011;5953;52.372;9.918;2023-03-12T07:45:20;4.90;;;2.50;;
11791;SDS011;5953;52.372;9.918;2023-03-12T07:47:52;4.67;;;2.60;;
11791;SDS011;5953;52.372;9.918;2023-03-12T07:50:21;5.27;;;2.33;;
11791;SDS011;5953;52.372;9.918;2023-03-12T07:52:49;3.63;;;2.27;;
11791;SDS011;5953;52.372;9.918;2023-03-12T07:55:19;2.97;;;2.00;;
11791;SDS011;5953;52.372;9.918;2023-03-12T07:57:47;4.77;;;2.30;;
11791;SDS011;5953;52.372;9.918;2023-03-12T08:00:15;6.73;;;2.60;;
11791;SDS011;5953;52.372;9.918;2023-03-12T08:02:43;3.93;;;2.70;;
11791;SDS011;5953;52.372;9.918;2023-03-12T08:05:11;5.73;;;2.27;;
11791;SDS011;5953;52.372;9.918;2023-03-12T08:07:53;7.13;;;2.50;;
11791;SDS011;5953;52.372;9.918;2023-03-12T08:10:23;3.57;;;2.50;;
11791;SDS011;5953;52.372;9.918;2023-03-12T08:12:52;3.83;;;2.23;;
11791;SDS011;5953;52.372;9.918;2023-03-12T08:15:20;4.17;;;2.33;;
11791;SDS011;5953;52.372;9.918;2023-03-12T08:17:48;3.93;;;1.87;;
11791;SDS011;5953;52.372;9.918;2023-03-12T08:20:16;3.97;;;2.10;;
11791;SDS011;5953;52.372;9.918;2023-03-12T08:22:44;4.10;;;2.30;;
11791;SDS011;5953;52.372;9.918;2023-03-12T08:25:12;3.47;;;2.00;;
11791;SDS011;5953;52.372;9.918;2023-03-12T08:27:43;5.07;;;2.20;;
11791;SDS011;5953;52.372;9.918;2023-03-12T08:30:11;4.87;;;2.80;;
11791;SDS011;5953;52.372;9.918;2023-03-12T08:32:39;3.20;;;2.27;;
11791;SDS011;5953;52.372;9.918;2023-03-12T08:35:08;4.63;;;2.33;;
11791;SDS011;5953;52.372;9.918;2023-03-12T08:37:36;3.57;;;1.90;;
11791;SDS011;5953;52.372;9.918;2023-03-12T08:40:05;6.27;;;2.40;;
11791;SDS011;5953;52.372;9.918;2023-03-12T08:42:50;4.63;;;1.63;;
11791;SDS011;5953;52.372;9.918;2023-03-12T08:45:18;6.70;;;2.17;;
11791;SDS011;5953;52.372;9.918;2023-03-12T08:47:49;5.47;;;2.03;;
11791;SDS011;5953;52.372;9.918;2023-03-12T08:50:17;4.60;;;2.20;;
11791;SDS011;5953;52.372;9.918;2023-03-12T08:52:47;7.60;;;2.30;;
11791;SDS011;5953;52.372;9.918;2023-03-12T08:55:15;2.27;;;1.83;;
11791;SDS011;5953;52.372;9.918;2023-03-12T08:57:43;2.33;;;1.63;;
11791;SDS011;5953;52.372;9.918;2023-03-12T09:00:13;6.93;;;2.23;;
11791;SDS011;5953;52.372;9.918;2023-03-12T09:02:56;3.33;;;2.00;;
11791;SDS011;5953;52.372;9.918;2023-03-12T09:05:24;3.13;;;1.93;;
11791;SDS011;5953;52.372;9.918;2023-03-12T09:07:55;4.17;;;1.90;;
11791;SDS011;5953;52.372;9.918;2023-03-12T09:10:23;4.33;;;1.50;;
11791;SDS011;5953;52.372;9.918;2023-03-12T09:13:07;2.60;;;2.03;;
11791;SDS011;5953;52.372;9.918;2023-03-12T09:15:36;4.23;;;1.90;;
11791;SDS011;5953;52.372;9.918;2023-03-12T09:18:04;3.47;;;2.20;;
11791;SDS011;5953;52.372;9.918;2023-03-12T09:20:32;4.37;;;1.90;;
11791;SDS011;5953;52.372;9.918;2023-03-12T09:23:00;2.23;;;1.70;;
11791;SDS011;5953;52.372;9.918;2023-03-12T09:25:28;5.23;;;1.93;;
11791;SDS011;5953;52.372;9.918;2023-03-12T09:27:56;4.80;;;1.83;;
11791;SDS011;5953;52.372;9.918;2023-03-12T09:30:26;4.73;;;1.90;;
11791;SDS011;5953;52.372;9.918;2023-03-12T09:36:31;3.73;;;1.73;;
11791;SDS011;5953;52.372;9.918;2023-03-12T09:39:05;7.67;;;3.83;;
11791;SDS011;5953;52.372;9.918;2023-03-12T09:41:34;3.40;;;2.37;;
11791;SDS011;5953;52.372;9.918;2023-03-12T09:44:26;6.17;;;2.10;;
11791;SDS011;5953;52.372;9.918;2023-03-12T09:47:07;3.33;;;1.73;;
11791;SDS011;5953;52.372;9.918;2023-03-12T09:49:50;6.73;;;3.50;;
11791;SDS011;5953;52.372;9.918;2023-03-12T09:52:26;3.83;;;1.70;;
11791;SDS011;5953;52.372;9.918;2023-03-12T09:54:58;6.67;;;2.00;;
11791;SDS011;5953;52.372;9.918;2023-03-12T09:57:40;3.33;;;1.43;;
11791;SDS011;5953;52.372;9.918;2023-03-12T10:00:10;3.00;;;2.13;;
11791;SDS011;5953;52.372;9.918;2023-03-12T10:02:53;3.23;;;1.43;;
11791;SDS011;5953;52.372;9.918;2023-03-12T10:05:39;5.53;;;1.90;;
11791;SDS011;5953;52.372;9.918;2023-03-12T10:08:15;4.27;;;1.57;;
11791;SDS011;5953;52.372;9.918;2023-03-12T10:10:57;6.90;;;2.80;;
11791;SDS011;5953;52.372;9.918;2023-03-12T10:13:56;3.87;;;1.80;;
11791;SDS011;5953;52.372;9.918;2023-03-12T10:16:37;5.37;;;2.27;;
11791;SDS011;5953;52.372;9.918;2023-03-12T10:19:25;7.37;;;2.30;;
11791;SDS011;5953;52.372;9.918;2023-03-12T10:22:14;8.90;;;2.40;;
11791;SDS011;5953;52.372;9.918;2023-03-12T10:24:58;5.43;;;2.67;;
11791;SDS011;5953;52.372;9.918;2023-03-12T10:27:38;6.40;;;3.07;;
11791;SDS011;5953;52.372;9.918;2023-03-12T10:30:12;7.60;;;3.70;;
11791;SDS011;5953;52.372;9.918;2023-03-12T10:32:48;4.07;;;2.27;;
11791;SDS011;5953;52.372;9.918;2023-03-12T10:35:19;5.43;;;2.83;;
11791;SDS011;5953;52.372;9.918;2023-03-12T10:37:49;5.57;;;3.13;;
11791;SDS011;5953;52.372;9.918;2023-03-12T10:40:22;4.87;;;2.60;;
11791;SDS011;5953;52.372;9.918;2023-03-12T10:43:00;4.63;;;2.27;;
11791;SDS011;5953;52.372;9.918;2023-03-12T10:45:30;7.40;;;4.03;;
11791;SDS011;5953;52.372;9.918;2023-03-12T10:48:03;2.63;;;2.00;;
11791;SDS011;5953;52.372;9.918;2023-03-12T10:50:35;8.60;;;3.73;;
11791;SDS011;5953;52.372;9.918;2023-03-12T10:56:00;3.60;;;2.10;;
11791;SDS011;5953;52.372;9.918;2023-03-12T10:58:32;5.90;;;2.20;;
11791;SDS011;5953;52.372;9.918;2023-03-12T11:01:02;4.47;;;1.87;;
11791;SDS011;5953;52.372;9.918;2023-03-12T11:03:32;3.27;;;2.00;;
11791;SDS011;5953;52.372;9.918;2023-03-12T11:06:01;3.33;;;1.63;;
11791;SDS011;5953;52.372;9.918;2023-03-12T11:08:36;1.87;;;1.17;;
11791;SDS011;5953;52.372;9.918;2023-03-12T11:11:09;3.63;;;2.00;;
11791;SDS011;5953;52.372;9.918;2023-03-12T11:13:38;3.13;;;1.90;;
11791;SDS011;5953;52.372;9.918;2023-03-12T11:16:23;5.10;;;2.00;;
11791;SDS011;5953;52.372;9.918;2023-03-12T11:18:57;2.03;;;1.70;;
11791;SDS011;5953;52.372;9.918;2023-03-12T11:21:27;6.27;;;1.83;;
11791;SDS011;5953;52.372;9.918;2023-03-12T11:24:03;3.93;;;2.00;;
11791;SDS011;5953;52.372;9.918;2023-03-12T11:26:48;3.63;;;1.83;;
11791;SDS011;5953;52.372;9.918;2023-03-12T11:29:24;3.60;;;1.57;;
11791;SDS011;5953;52.372;9.918;2023-03-12T11:31:59;5.20;;;1.60;;
11791;SDS011;5953;52.372;9.918;2023-03-12T11:34:33;3.17;;;1.87;;
11791;SDS011;5953;52.372;9.918;2023-03-12T11:37:07;4.27;;;1.30;;
11791;SDS011;5953;52.372;9.918;2023-03-12T11:39:46;2.93;;;1.60;;
11791;SDS011;5953;52.372;9.918;2023-03-12T11:42:42;6.07;;;2.27;;
11791;SDS011;5953;52.372;9.918;2023-03-12T11:45:27;5.40;;;2.10;;
11791;SDS011;5953;52.372;9.918;2023-03-12T11:48:05;8.40;;;2.40;;
11791;SDS011;5953;52.372;9.918;2023-03-12T11:50:45;4.40;;;2.20;;
11791;SDS011;5953;52.372;9.918;2023-03-12T11:53:26;4.17;;;2.57;;
11791;SDS011;5953;52.372;9.918;2023-03-12T11:56:06;4.03;;;1.93;;
11791;SDS011;5953;52.372;9.918;2023-03-12T11:58:54;4.50;;;2.37;;
11791;SDS011;5953;52.372;9.918;2023-03-12T12:01:31;6.83;;;2.47;;
11791;SDS011;5953;52.372;9.918;2023-03-12T12:04:14;7.07;;;2.20;;
11791;SDS011;5953;52.372;9.918;2023-03-12T12:07:01;4.40;;;2.50;;
11791;SDS011;5953;52.372;9.918;2023-03-12T12:09:35;6.50;;;2.67;;
11791;SDS011;5953;52.372;9.918;2023-03-12T12:12:13;5.00;;;2.80;;
11791;SDS011;5953;52.372;9.918;2023-03-12T12:14:52;6.67;;;2.53;;
11791;SDS011;5953;52.372;9.918;2023-03-12T12:17:43;4.43;;;2.20;;
11791;SDS011;5953;52.372;9.918;2023-03-12T12:20:28;5.20;;;2.63;;
11791;SDS011;5953;52.372;9.918;2023-03-12T12:23:14;4.17;;;2.33;;
11791;SDS011;5953;52.372;9.918;2023-03-12T12:25:58;4.20;;;2.70;;
11791;SDS011;5953;52.372;9.918;2023-03-12T12:28:38;4.37;;;2.43;;
11791;SDS011;5953;52.372;9.918;2023-03-12T12:34:16;7.20;;;2.90;;
11791;SDS011;5953;52.372;9.918;2023-03-12T12:37:02;4.93;;;2.40;;
11791;SDS011;5953;52.372;9.918;2023-03-12T12:39:41;6.30;;;3.03;;
11791;SDS011;5953;52.372;9.918;2023-03-12T12:42:15;3.80;;;3.00;;
11791;SDS011;5953;52.372;9.918;2023-03-12T12:44:58;6.43;;;3.20;;
11791;SDS011;5953;52.372;9.918;2023-03-12T12:47:35;7.37;;;2.73;;
11791;SDS011;5953;52.372;9.918;2023-03-12T12:50:13;3.17;;;2.77;;
11791;SDS011;5953;52.372;9.918;2023-03-12T12:57:31;6.13;;;2.50;;
11791;SDS011;5953;52.372;9.918;2023-03-12T13:03:21;7.20;;;3.57;;
11791;SDS011;5953;52.372;9.918;2023-03-12T13:06:35;3.27;;;2.73;;
11791;SDS011;5953;52.372;9.918;2023-03-12T13:42:26;3.60;;;3.20;;
11791;SDS011;5953;52.372;9.918;2023-03-12T13:45:23;5.80;;;2.57;;
11791;SDS011;5953;52.372;9.918;2023-03-12T13:47:58;4.03;;;3.13;;
11791;SDS011;5953;52.372;9.918;2023-03-12T13:51:27;6.97;;;3.57;;
11791;SDS011;5953;52.372;9.918;2023-03-12T13:54:04;7.07;;;3.87;;
11791;SDS011;5953;52.372;9.918;2023-03-12T13:56:54;4.37;;;3.70;;
11791;SDS011;5953;52.372;9.918;2023-03-12T13:59:25;4.77;;;3.70;;
11791;SDS011;5953;52.372;9.918;2023-03-12T14:02:20;6.73;;;3.10;;
11791;SDS011;5953;52.372;9.918;2023-03-12T14:11:48;4.33;;;3.70;;
11791;SDS011;5953;52.372;9.918;2023-03-12T14:14:29;5.40;;;4.57;;
11791;SDS011;5953;52.372;9.918;2023-03-12T14:17:13;5.27;;;3.80;;
11791;SDS011;5953;52.372;9.918;2023-03-12T14:19:44;5.60;;;3.37;;
11791;SDS011;5953;52.372;9.918;2023-03-12T14:22:14;6.47;;;3.93;;
11791;SDS011;5953;52.372;9.918;2023-03-12T14:24:48;5.27;;;3.50;;
11791;SDS011;5953;52.372;9.918;2023-03-12T14:27:29;4.10;;;3.70;;
11791;SDS011;5953;52.372;9.918;2023-03-12T14:30:10;3.80;;;3.00;;
11791;SDS011;5953;52.372;9.918;2023-03-12T14:32:46;4.27;;;3.50;;
11791;SDS011;5953;52.372;9.918;2023-03-12T14:35:18;8.00;;;3.97;;
11791;SDS011;5953;52.372;9.918;2023-03-12T14:37:54;5.57;;;3.80;;
11791;SDS011;5953;52.372;9.918;2023-03-12T14:40:34;5.43;;;4.07;;
11791;SDS011;5953;52.372;9.918;2023-03-12T14:43:25;6.13;;;4.00;;
11791;SDS011;5953;52.372;9.918;2023-03-12T14:46:16;7.93;;;5.30;;
11791;SDS011;5953;52.372;9.918;2023-03-12T14:48:50;6.07;;;4.23;;
11791;SDS011;5953;52.372;9.918;2023-03-12T14:51:42;7.63;;;5.33;;
11791;SDS011;5953;52.372;9.918;2023-03-12T14:54:15;8.73;;;4.93;;
11791;SDS011;5953;52.372;9.918;2023-03-12T14:56:50;5.60;;;4.87;;
11791;SDS011;5953;52.372;9.918;2023-03-12T14:59:25;7.97;;;7.17;;
11791;SDS011;5953;52.372;9.918;2023-03-12T15:01:58;5.67;;;4.77;;
11791;SDS011;5953;52.372;9.918;2023-03-12T15:04:28;4.77;;;4.37;;
11791;SDS011;5953;52.372;9.918;2023-03-12T15:06:58;5.77;;;5.10;;
11791;SDS011;5953;52.372;9.918;2023-03-12T15:09:30;4.73;;;4.27;;
11791;SDS011;5953;52.372;9.918;2023-03-12T15:12:02;5.80;;;5.00;;
11791;SDS011;5953;52.372;9.918;2023-03-12T15:14:53;5.23;;;4.70;;
11791;SDS011;5953;52.372;9.918;2023-03-12T15:17:45;5.50;;;4.67;;
11791;SDS011;5953;52.372;9.918;2023-03-12T15:20:13;7.27;;;4.87;;
11791;SDS011;5953;52.372;9.918;2023-03-12T15:22:42;7.90;;;5.13;;
11791;SDS011;5953;52.372;9.918;2023-03-12T15:25:19;5.53;;;4.60;;
11791;SDS011;5953;52.372;9.918;2023-03-12T15:27:48;5.53;;;4.90;;
11791;SDS011;5953;52.372;9.918;2023-03-12T15:30:30;5.37;;;4.87;;
11791;SDS011;5953;52.372;9.918;2023-03-12T15:33:05;6.10;;;5.13;;
11791;SDS011;5953;52.372;9.918;2023-03-12T15:35:35;6.57;;;5.47;;
11791;SDS011;5953;52.372;9.918;2023-03-12T15:38:11;7.43;;;5.30;;
11791;SDS011;5953;52.372;9.918;2023-03-12T15:40:46;5.10;;;4.60;;
11791;SDS011;5953;52.372;9.918;2023-03-12T15:43:15;6.10;;;5.13;;
11791;SDS011;5953;52.372;9.918;2023-03-12T15:45:48;4.93;;;4.30;;
11791;SDS011;5953;52.372;9.918;2023-03-12T15:48:25;5.57;;;4.87;;
11791;SDS011;5953;52.372;9.918;2023-03-12T15:50:56;5.83;;;5.23;;
11791;SDS011;5953;52.372;9.918;2023-03-12T15:53:26;5.67;;;5.17;;
11791;SDS011;5953;52.372;9.918;2023-03-12T15:56:04;7.40;;;6.20;;
11791;SDS011;5953;52.372;9.918;2023-03-12T15:58:37;5.87;;;4.70;;
11791;SDS011;5953;52.372;9.918;2023-03-12T16:01:08;6.43;;;4.87;;
11791;SDS011;5953;52.372;9.918;2023-03-12T16:03:43;5.90;;;5.20;;
11791;SDS011;5953;52.372;9.918;2023-03-12T16:06:17;8.30;;;5.30;;
11791;SDS011;5953;52.372;9.918;2023-03-12T16:08:52;5.87;;;5.13;;
11791;SDS011;5953;52.372;9.918;2023-03-12T16:11:23;6.23;;;5.63;;
11791;SDS011;5953;52.372;9.918;2023-03-12T16:13:54;9.40;;;5.80;;
11791;SDS011;5953;52.372;9.918;2023-03-12T16:16:30;7.10;;;6.00;;
11791;SDS011;5953;52.372;9.918;2023-03-12T16:18:59;11.20;;;6.87;;
11791;SDS011;5953;52.372;9.918;2023-03-12T16:21:27;11.10;;;7.53;;
11791;SDS011;5953;52.372;9.918;2023-03-12T16:24:00;13.70;;;7.67;;
11791;SDS011;5953;52.372;9.918;2023-03-12T16:26:45;14.60;;;9.63;;
11791;SDS011;5953;52.372;9.918;2023-03-12T16:29:17;14.13;;;8.23;;
11791;SDS011;5953;52.372;9.918;2023-03-12T16:34:44;13.90;;;8.70;;
11791;SDS011;5953;52.372;9.918;2023-03-12T16:37:15;12.97;;;8.77;;
11791;SDS011;5953;52.372;9.918;2023-03-12T16:39:45;12.60;;;8.77;;
11791;SDS011;5953;52.372;9.918;2023-03-12T16:42:22;14.07;;;8.90;;
11791;SDS011;5953;52.372;9.918;2023-03-12T16:44:51;18.77;;;11.83;;
11791;SDS011;5953;52.372;9.918;2023-03-12T16:47:23;17.07;;;10.40;;